Kinrooi, Belgium
Current Conditions -  °F | °C
As of 8:55 PM on Sunday 25 Jan 2015 (Local Time) from EBBL Reporting Station
Overcast Overcast  
Wind Chill: 31°   Ceiling: 3600
Heat Index: 36°   Visibility: 3mi
Dew Point: 34°   Wind: 6mph
Humidity: 93%   Direction: 210°SSW
Pressure: 30.39"   Gusts: NA
Location:  51.15°N, 5.74°E
Report Text: EBBL 251955Z AUTO 21005KT 4800 SCT026/// BKN036/// OVC042/// 02/01 Q1029 GRN
Loading
Personal Weather Stations






























Interactive Weather Map New forecast layout! Learn more

10-Day Weather Forecast

Advertisements
Track Severe Weather on mobile